sensor_id;sensor_type;location;lat;lon;timestamp;P1;durP1;ratioP1;P2;durP2;ratioP2
37241;SDS011;23135;51.078;12.108;2024-01-15T00:01:54;6.47;;;3.28;;
37241;SDS011;23135;51.078;12.108;2024-01-15T00:04:20;8.65;;;3.30;;
37241;SDS011;23135;51.078;12.108;2024-01-15T00:06:45;9.07;;;3.75;;
37241;SDS011;23135;51.078;12.108;2024-01-15T00:09:11;6.07;;;2.30;;
37241;SDS011;23135;51.078;12.108;2024-01-15T00:11:37;8.68;;;3.75;;
37241;SDS011;23135;51.078;12.108;2024-01-15T00:14:02;8.18;;;3.55;;
37241;SDS011;23135;51.078;12.108;2024-01-15T00:16:28;9.43;;;4.65;;
37241;SDS011;23135;51.078;12.108;2024-01-15T00:18:54;6.00;;;2.58;;
37241;SDS011;23135;51.078;12.108;2024-01-15T00:21:19;8.45;;;3.38;;
37241;SDS011;23135;51.078;12.108;2024-01-15T00:23:45;7.03;;;2.50;;
37241;SDS011;23135;51.078;12.108;2024-01-15T00:26:11;6.32;;;2.78;;
37241;SDS011;23135;51.078;12.108;2024-01-15T00:28:36;6.70;;;2.88;;
37241;SDS011;23135;51.078;12.108;2024-01-15T00:31:03;10.75;;;3.90;;
37241;SDS011;23135;51.078;12.108;2024-01-15T00:33:31;6.20;;;2.67;;
37241;SDS011;23135;51.078;12.108;2024-01-15T00:35:57;8.50;;;3.60;;
37241;SDS011;23135;51.078;12.108;2024-01-15T00:38:23;8.77;;;3.00;;
37241;SDS011;23135;51.078;12.108;2024-01-15T00:40:48;11.65;;;5.05;;
37241;SDS011;23135;51.078;12.108;2024-01-15T00:43:14;8.77;;;3.47;;
37241;SDS011;23135;51.078;12.108;2024-01-15T00:45:40;9.18;;;3.78;;
37241;SDS011;23135;51.078;12.108;2024-01-15T00:48:06;8.70;;;4.03;;
37241;SDS011;23135;51.078;12.108;2024-01-15T00:50:31;8.30;;;4.00;;
37241;SDS011;23135;51.078;12.108;2024-01-15T00:52:57;10.32;;;4.85;;
37241;SDS011;23135;51.078;12.108;2024-01-15T00:55:22;9.48;;;3.60;;
37241;SDS011;23135;51.078;12.108;2024-01-15T00:57:48;7.55;;;3.78;;
37241;SDS011;23135;51.078;12.108;2024-01-15T01:00:14;8.52;;;4.15;;
37241;SDS011;23135;51.078;12.108;2024-01-15T01:02:39;9.02;;;4.38;;
37241;SDS011;23135;51.078;12.108;2024-01-15T01:05:05;5.63;;;2.95;;
37241;SDS011;23135;51.078;12.108;2024-01-15T01:07:31;7.78;;;3.33;;
37241;SDS011;23135;51.078;12.108;2024-01-15T01:09:56;8.90;;;4.22;;
37241;SDS011;23135;51.078;12.108;2024-01-15T01:12:22;10.20;;;4.07;;
37241;SDS011;23135;51.078;12.108;2024-01-15T01:14:47;10.00;;;3.60;;
37241;SDS011;23135;51.078;12.108;2024-01-15T01:17:13;8.75;;;4.03;;
37241;SDS011;23135;51.078;12.108;2024-01-15T01:19:38;5.65;;;3.15;;
37241;SDS011;23135;51.078;12.108;2024-01-15T01:22:04;7.68;;;3.40;;
37241;SDS011;23135;51.078;12.108;2024-01-15T01:24:30;9.65;;;4.07;;
37241;SDS011;23135;51.078;12.108;2024-01-15T01:26:55;7.60;;;2.83;;
37241;SDS011;23135;51.078;12.108;2024-01-15T01:29:21;9.18;;;4.18;;
37241;SDS011;23135;51.078;12.108;2024-01-15T01:31:47;7.05;;;2.92;;
37241;SDS011;23135;51.078;12.108;2024-01-15T01:34:13;9.30;;;3.88;;
37241;SDS011;23135;51.078;12.108;2024-01-15T01:36:40;7.80;;;3.75;;
37241;SDS011;23135;51.078;12.108;2024-01-15T01:39:06;7.03;;;3.55;;
37241;SDS011;23135;51.078;12.108;2024-01-15T01:41:32;9.32;;;3.38;;
37241;SDS011;23135;51.078;12.108;2024-01-15T01:43:57;7.82;;;3.38;;
37241;SDS011;23135;51.078;12.108;2024-01-15T01:46:23;9.95;;;5.10;;
37241;SDS011;23135;51.078;12.108;2024-01-15T01:48:51;10.70;;;4.72;;
37241;SDS011;23135;51.078;12.108;2024-01-15T01:51:17;8.30;;;3.15;;
37241;SDS011;23135;51.078;12.108;2024-01-15T01:53:43;6.30;;;2.88;;
37241;SDS011;23135;51.078;12.108;2024-01-15T01:56:10;7.07;;;3.60;;
37241;SDS011;23135;51.078;12.108;2024-01-15T01:58:36;9.05;;;3.45;;
37241;SDS011;23135;51.078;12.108;2024-01-15T02:01:02;16.13;;;2.90;;
37241;SDS011;23135;51.078;12.108;2024-01-15T02:03:29;8.95;;;3.53;;
37241;SDS011;23135;51.078;12.108;2024-01-15T02:05:56;9.75;;;3.97;;
37241;SDS011;23135;51.078;12.108;2024-01-15T02:08:21;6.40;;;2.13;;
37241;SDS011;23135;51.078;12.108;2024-01-15T02:10:47;3.75;;;1.65;;
37241;SDS011;23135;51.078;12.108;2024-01-15T02:13:13;7.95;;;3.08;;
37241;SDS011;23135;51.078;12.108;2024-01-15T02:15:38;7.60;;;3.28;;
37241;SDS011;23135;51.078;12.108;2024-01-15T02:18:05;6.10;;;2.42;;
37241;SDS011;23135;51.078;12.108;2024-01-15T02:20:34;10.98;;;4.65;;
37241;SDS011;23135;51.078;12.108;2024-01-15T02:23:10;8.30;;;3.03;;
37241;SDS011;23135;51.078;12.108;2024-01-15T02:25:40;11.48;;;2.78;;
37241;SDS011;23135;51.078;12.108;2024-01-15T02:28:09;9.70;;;3.60;;
37241;SDS011;23135;51.078;12.108;2024-01-15T02:30:38;9.27;;;3.45;;
37241;SDS011;23135;51.078;12.108;2024-01-15T02:33:08;13.93;;;5.13;;
37241;SDS011;23135;51.078;12.108;2024-01-15T02:35:35;10.93;;;4.50;;
37241;SDS011;23135;51.078;12.108;2024-01-15T02:38:04;11.55;;;4.90;;
37241;SDS011;23135;51.078;12.108;2024-01-15T02:40:30;10.23;;;4.80;;
37241;SDS011;23135;51.078;12.108;2024-01-15T02:42:55;12.98;;;5.28;;
37241;SDS011;23135;51.078;12.108;2024-01-15T02:45:21;16.98;;;6.43;;
37241;SDS011;23135;51.078;12.108;2024-01-15T02:47:48;12.52;;;4.78;;
37241;SDS011;23135;51.078;12.108;2024-01-15T02:50:13;14.70;;;6.00;;
37241;SDS011;23135;51.078;12.108;2024-01-15T02:52:39;15.73;;;6.07;;
37241;SDS011;23135;51.078;12.108;2024-01-15T02:55:06;14.65;;;5.78;;
37241;SDS011;23135;51.078;12.108;2024-01-15T02:57:31;21.33;;;7.05;;
37241;SDS011;23135;51.078;12.108;2024-01-15T02:59:57;15.73;;;6.63;;
37241;SDS011;23135;51.078;12.108;2024-01-15T03:02:23;15.70;;;5.95;;
37241;SDS011;23135;51.078;12.108;2024-01-15T03:04:48;11.60;;;4.68;;
37241;SDS011;23135;51.078;12.108;2024-01-15T03:07:14;19.98;;;6.13;;
37241;SDS011;23135;51.078;12.108;2024-01-15T03:09:39;13.45;;;6.07;;
37241;SDS011;23135;51.078;12.108;2024-01-15T03:12:05;15.70;;;6.53;;
37241;SDS011;23135;51.078;12.108;2024-01-15T03:14:31;19.95;;;6.50;;
37241;SDS011;23135;51.078;12.108;2024-01-15T03:16:57;16.23;;;6.93;;
37241;SDS011;23135;51.078;12.108;2024-01-15T03:19:22;13.20;;;6.28;;
37241;SDS011;23135;51.078;12.108;2024-01-15T03:21:48;14.60;;;6.35;;
37241;SDS011;23135;51.078;12.108;2024-01-15T03:24:13;17.98;;;6.72;;
37241;SDS011;23135;51.078;12.108;2024-01-15T03:26:39;14.75;;;4.03;;
37241;SDS011;23135;51.078;12.108;2024-01-15T03:29:05;10.27;;;4.25;;
37241;SDS011;23135;51.078;12.108;2024-01-15T03:31:31;19.67;;;5.88;;
37241;SDS011;23135;51.078;12.108;2024-01-15T03:33:56;11.48;;;5.88;;
37241;SDS011;23135;51.078;12.108;2024-01-15T03:36:22;18.67;;;6.50;;
37241;SDS011;23135;51.078;12.108;2024-01-15T03:38:48;11.23;;;4.13;;
37241;SDS011;23135;51.078;12.108;2024-01-15T03:41:13;8.50;;;3.83;;
37241;SDS011;23135;51.078;12.108;2024-01-15T03:43:39;10.32;;;3.28;;
37241;SDS011;23135;51.078;12.108;2024-01-15T03:46:05;5.47;;;2.20;;
37241;SDS011;23135;51.078;12.108;2024-01-15T03:48:30;7.55;;;3.95;;
37241;SDS011;23135;51.078;12.108;2024-01-15T03:50:56;5.80;;;2.08;;
37241;SDS011;23135;51.078;12.108;2024-01-15T03:53:22;5.15;;;1.90;;
37241;SDS011;23135;51.078;12.108;2024-01-15T03:55:47;7.75;;;3.03;;
37241;SDS011;23135;51.078;12.108;2024-01-15T03:58:13;9.52;;;2.65;;
37241;SDS011;23135;51.078;12.108;2024-01-15T04:00:40;6.88;;;2.30;;
37241;SDS011;23135;51.078;12.108;2024-01-15T04:03:06;6.35;;;1.55;;
37241;SDS011;23135;51.078;12.108;2024-01-15T04:05:31;4.97;;;1.50;;
37241;SDS011;23135;51.078;12.108;2024-01-15T04:07:57;9.63;;;1.95;;
37241;SDS011;23135;51.078;12.108;2024-01-15T04:10:22;5.53;;;1.85;;
37241;SDS011;23135;51.078;12.108;2024-01-15T04:12:48;10.32;;;2.97;;
37241;SDS011;23135;51.078;12.108;2024-01-15T04:15:14;4.78;;;2.03;;
37241;SDS011;23135;51.078;12.108;2024-01-15T04:17:39;7.15;;;3.00;;
37241;SDS011;23135;51.078;12.108;2024-01-15T04:20:05;5.78;;;2.25;;
37241;SDS011;23135;51.078;12.108;2024-01-15T04:22:31;8.63;;;3.63;;
37241;SDS011;23135;51.078;12.108;2024-01-15T04:24:57;9.40;;;3.85;;
37241;SDS011;23135;51.078;12.108;2024-01-15T04:27:23;5.15;;;2.00;;
37241;SDS011;23135;51.078;12.108;2024-01-15T04:29:49;6.05;;;2.83;;
37241;SDS011;23135;51.078;12.108;2024-01-15T04:32:14;4.93;;;1.85;;
37241;SDS011;23135;51.078;12.108;2024-01-15T04:34:40;6.53;;;2.22;;
37241;SDS011;23135;51.078;12.108;2024-01-15T04:37:05;8.10;;;3.33;;
37241;SDS011;23135;51.078;12.108;2024-01-15T04:39:31;10.15;;;2.53;;
37241;SDS011;23135;51.078;12.108;2024-01-15T04:41:57;7.95;;;3.03;;
37241;SDS011;23135;51.078;12.108;2024-01-15T04:44:22;8.63;;;1.85;;
37241;SDS011;23135;51.078;12.108;2024-01-15T04:46:48;7.50;;;3.22;;
37241;SDS011;23135;51.078;12.108;2024-01-15T04:49:13;7.13;;;2.72;;
37241;SDS011;23135;51.078;12.108;2024-01-15T04:51:39;6.18;;;2.20;;
37241;SDS011;23135;51.078;12.108;2024-01-15T04:54:04;5.18;;;1.55;;
37241;SDS011;23135;51.078;12.108;2024-01-15T04:56:30;11.52;;;4.00;;
37241;SDS011;23135;51.078;12.108;2024-01-15T04:58:55;7.00;;;3.22;;
37241;SDS011;23135;51.078;12.108;2024-01-15T05:01:21;4.68;;;2.13;;
37241;SDS011;23135;51.078;12.108;2024-01-15T05:03:46;6.72;;;3.15;;
37241;SDS011;23135;51.078;12.108;2024-01-15T05:06:12;9.98;;;2.78;;
37241;SDS011;23135;51.078;12.108;2024-01-15T05:08:38;6.65;;;2.40;;
37241;SDS011;23135;51.078;12.108;2024-01-15T05:11:03;9.52;;;2.78;;
37241;SDS011;23135;51.078;12.108;2024-01-15T05:13:29;6.28;;;2.70;;
37241;SDS011;23135;51.078;12.108;2024-01-15T05:15:54;9.52;;;3.80;;
37241;SDS011;23135;51.078;12.108;2024-01-15T05:18:20;7.40;;;2.35;;
37241;SDS011;23135;51.078;12.108;2024-01-15T05:20:45;10.02;;;3.28;;
37241;SDS011;23135;51.078;12.108;2024-01-15T05:23:11;7.35;;;2.53;;
37241;SDS011;23135;51.078;12.108;2024-01-15T05:25:37;7.22;;;1.88;;
37241;SDS011;23135;51.078;12.108;2024-01-15T05:28:02;7.82;;;3.40;;
37241;SDS011;23135;51.078;12.108;2024-01-15T05:30:28;7.55;;;2.90;;
37241;SDS011;23135;51.078;12.108;2024-01-15T05:32:53;8.30;;;2.78;;
37241;SDS011;23135;51.078;12.108;2024-01-15T05:35:19;6.93;;;2.85;;
37241;SDS011;23135;51.078;12.108;2024-01-15T05:37:45;9.73;;;3.35;;
37241;SDS011;23135;51.078;12.108;2024-01-15T05:40:11;4.97;;;1.55;;
37241;SDS011;23135;51.078;12.108;2024-01-15T05:42:38;10.88;;;3.03;;
37241;SDS011;23135;51.078;12.108;2024-01-15T05:45:04;5.88;;;2.40;;
37241;SDS011;23135;51.078;12.108;2024-01-15T05:47:30;4.50;;;2.47;;
37241;SDS011;23135;51.078;12.108;2024-01-15T05:49:56;6.15;;;1.88;;
37241;SDS011;23135;51.078;12.108;2024-01-15T05:52:23;5.43;;;2.25;;
37241;SDS011;23135;51.078;12.108;2024-01-15T05:54:49;7.70;;;2.10;;
37241;SDS011;23135;51.078;12.108;2024-01-15T05:57:14;8.55;;;3.70;;
37241;SDS011;23135;51.078;12.108;2024-01-15T05:59:40;14.27;;;2.67;;
37241;SDS011;23135;51.078;12.108;2024-01-15T06:02:05;7.07;;;1.85;;
37241;SDS011;23135;51.078;12.108;2024-01-15T06:04:31;6.15;;;2.28;;
37241;SDS011;23135;51.078;12.108;2024-01-15T06:06:56;6.45;;;2.20;;
37241;SDS011;23135;51.078;12.108;2024-01-15T06:09:22;6.07;;;1.88;;
37241;SDS011;23135;51.078;12.108;2024-01-15T06:11:48;4.38;;;1.92;;
37241;SDS011;23135;51.078;12.108;2024-01-15T06:14:13;4.65;;;1.73;;
37241;SDS011;23135;51.078;12.108;2024-01-15T06:16:39;13.65;;;2.63;;
37241;SDS011;23135;51.078;12.108;2024-01-15T06:19:04;8.38;;;2.65;;
37241;SDS011;23135;51.078;12.108;2024-01-15T06:21:30;5.25;;;1.73;;
37241;SDS011;23135;51.078;12.108;2024-01-15T06:23:55;5.05;;;1.60;;
37241;SDS011;23135;51.078;12.108;2024-01-15T06:26:21;5.35;;;2.00;;
37241;SDS011;23135;51.078;12.108;2024-01-15T06:28:47;6.35;;;1.83;;
37241;SDS011;23135;51.078;12.108;2024-01-15T06:31:13;6.20;;;1.60;;
37241;SDS011;23135;51.078;12.108;2024-01-15T06:33:39;3.33;;;0.90;;
37241;SDS011;23135;51.078;12.108;2024-01-15T06:36:05;5.20;;;2.15;;
37241;SDS011;23135;51.078;12.108;2024-01-15T06:38:31;5.35;;;1.42;;
37241;SDS011;23135;51.078;12.108;2024-01-15T06:40:56;5.43;;;1.40;;
37241;SDS011;23135;51.078;12.108;2024-01-15T06:43:23;1.88;;;1.10;;
37241;SDS011;23135;51.078;12.108;2024-01-15T06:45:48;2.33;;;0.68;;
37241;SDS011;23135;51.078;12.108;2024-01-15T06:48:14;2.72;;;0.63;;
37241;SDS011;23135;51.078;12.108;2024-01-15T06:50:41;7.38;;;1.48;;
37241;SDS011;23135;51.078;12.108;2024-01-15T06:53:07;4.03;;;1.85;;
37241;SDS011;23135;51.078;12.108;2024-01-15T06:55:33;5.85;;;1.05;;
37241;SDS011;23135;51.078;12.108;2024-01-15T06:57:59;4.45;;;1.13;;
37241;SDS011;23135;51.078;12.108;2024-01-15T07:00:24;5.63;;;1.65;;
37241;SDS011;23135;51.078;12.108;2024-01-15T07:02:50;3.65;;;1.00;;
37241;SDS011;23135;51.078;12.108;2024-01-15T07:05:16;4.82;;;1.42;;
37241;SDS011;23135;51.078;12.108;2024-01-15T07:07:42;6.68;;;1.40;;
37241;SDS011;23135;51.078;12.108;2024-01-15T07:10:08;4.07;;;0.90;;
37241;SDS011;23135;51.078;12.108;2024-01-15T07:12:33;4.03;;;1.58;;
37241;SDS011;23135;51.078;12.108;2024-01-15T07:14:59;5.88;;;1.55;;
37241;SDS011;23135;51.078;12.108;2024-01-15T07:17:25;6.88;;;1.75;;
37241;SDS011;23135;51.078;12.108;2024-01-15T07:19:50;4.05;;;1.77;;
37241;SDS011;23135;51.078;12.108;2024-01-15T07:22:16;3.45;;;1.33;;
37241;SDS011;23135;51.078;12.108;2024-01-15T07:24:42;6.30;;;2.65;;
37241;SDS011;23135;51.078;12.108;2024-01-15T07:27:08;6.05;;;1.13;;
37241;SDS011;23135;51.078;12.108;2024-01-15T07:29:34;4.57;;;1.13;;
37241;SDS011;23135;51.078;12.108;2024-01-15T07:32:02;8.43;;;1.65;;
37241;SDS011;23135;51.078;12.108;2024-01-15T07:34:28;3.67;;;1.48;;
37241;SDS011;23135;51.078;12.108;2024-01-15T07:36:54;7.03;;;1.55;;
37241;SDS011;23135;51.078;12.108;2024-01-15T07:39:19;8.40;;;1.85;;
37241;SDS011;23135;51.078;12.108;2024-01-15T07:41:45;3.55;;;1.38;;
37241;SDS011;23135;51.078;12.108;2024-01-15T07:44:10;2.60;;;0.85;;
37241;SDS011;23135;51.078;12.108;2024-01-15T07:46:36;2.70;;;0.43;;
37241;SDS011;23135;51.078;12.108;2024-01-15T07:49:01;2.10;;;1.08;;
37241;SDS011;23135;51.078;12.108;2024-01-15T07:51:27;11.07;;;1.48;;
37241;SDS011;23135;51.078;12.108;2024-01-15T07:53:53;2.28;;;1.27;;
37241;SDS011;23135;51.078;12.108;2024-01-15T07:56:20;4.57;;;0.90;;
37241;SDS011;23135;51.078;12.108;2024-01-15T07:58:46;4.40;;;1.08;;
37241;SDS011;23135;51.078;12.108;2024-01-15T08:01:12;9.48;;;2.10;;
37241;SDS011;23135;51.078;12.108;2024-01-15T08:03:37;3.13;;;0.73;;
37241;SDS011;23135;51.078;12.108;2024-01-15T08:06:03;5.35;;;0.73;;
37241;SDS011;23135;51.078;12.108;2024-01-15T08:08:30;3.13;;;1.02;;
37241;SDS011;23135;51.078;12.108;2024-01-15T08:10:55;6.00;;;1.10;;
37241;SDS011;23135;51.078;12.108;2024-01-15T08:13:21;2.08;;;0.95;;
37241;SDS011;23135;51.078;12.108;2024-01-15T08:15:46;3.25;;;0.65;;
37241;SDS011;23135;51.078;12.108;2024-01-15T08:18:12;5.82;;;1.33;;
37241;SDS011;23135;51.078;12.108;2024-01-15T08:20:38;7.25;;;0.50;;
37241;SDS011;23135;51.078;12.108;2024-01-15T08:23:04;3.17;;;0.68;;
37241;SDS011;23135;51.078;12.108;2024-01-15T08:25:29;5.05;;;0.52;;
37241;SDS011;23135;51.078;12.108;2024-01-15T08:27:58;2.00;;;0.65;;
37241;SDS011;23135;51.078;12.108;2024-01-15T08:30:23;6.70;;;0.77;;
37241;SDS011;23135;51.078;12.108;2024-01-15T08:32:55;3.97;;;1.15;;
37241;SDS011;23135;51.078;12.108;2024-01-15T08:35:21;12.70;;;1.50;;
37241;SDS011;23135;51.078;12.108;2024-01-15T08:37:51;2.13;;;0.60;;
37241;SDS011;23135;51.078;12.108;2024-01-15T08:40:17;4.07;;;0.70;;
37241;SDS011;23135;51.078;12.108;2024-01-15T08:42:43;6.20;;;1.05;;
37241;SDS011;23135;51.078;12.108;2024-01-15T08:45:10;5.30;;;1.25;;
37241;SDS011;23135;51.078;12.108;2024-01-15T08:47:35;2.83;;;1.42;;
37241;SDS011;23135;51.078;12.108;2024-01-15T08:50:01;1.77;;;0.85;;
37241;SDS011;23135;51.078;12.108;2024-01-15T08:52:28;9.18;;;1.15;;
37241;SDS011;23135;51.078;12.108;2024-01-15T08:54:54;3.17;;;0.63;;
37241;SDS011;23135;51.078;12.108;2024-01-15T08:57:22;4.20;;;0.93;;
37241;SDS011;23135;51.078;12.108;2024-01-15T08:59:47;5.70;;;0.90;;
37241;SDS011;23135;51.078;12.108;2024-01-15T09:02:13;7.65;;;1.02;;
37241;SDS011;23135;51.078;12.108;2024-01-15T09:04:39;2.08;;;0.60;;
37241;SDS011;23135;51.078;12.108;2024-01-15T09:07:04;7.45;;;1.58;;
37241;SDS011;23135;51.078;12.108;2024-01-15T09:09:30;5.22;;;0.82;;
37241;SDS011;23135;51.078;12.108;2024-01-15T09:11:55;5.03;;;0.45;;
37241;SDS011;23135;51.078;12.108;2024-01-15T09:14:21;5.45;;;1.17;;
37241;SDS011;23135;51.078;12.108;2024-01-15T09:16:49;2.60;;;1.02;;
37241;SDS011;23135;51.078;12.108;2024-01-15T09:19:14;1.75;;;0.57;;
37241;SDS011;23135;51.078;12.108;2024-01-15T09:21:40;2.00;;;0.52;;
37241;SDS011;23135;51.078;12.108;2024-01-15T09:24:05;3.00;;;0.98;;
37241;SDS011;23135;51.078;12.108;2024-01-15T09:26:31;2.40;;;0.60;;
37241;SDS011;23135;51.078;12.108;2024-01-15T09:28:57;2.83;;;0.65;;
37241;SDS011;23135;51.078;12.108;2024-01-15T09:31:22;4.10;;;1.25;;
37241;SDS011;23135;51.078;12.108;2024-01-15T09:33:49;3.78;;;1.25;;
37241;SDS011;23135;51.078;12.108;2024-01-15T09:36:17;5.40;;;0.93;;
37241;SDS011;23135;51.078;12.108;2024-01-15T09:38:43;2.47;;;0.43;;
37241;SDS011;23135;51.078;12.108;2024-01-15T09:41:08;6.85;;;1.10;;
37241;SDS011;23135;51.078;12.108;2024-01-15T09:43:34;4.57;;;1.50;;
37241;SDS011;23135;51.078;12.108;2024-01-15T09:46:02;5.93;;;1.83;;
37241;SDS011;23135;51.078;12.108;2024-01-15T09:48:28;4.70;;;1.40;;
37241;SDS011;23135;51.078;12.108;2024-01-15T09:50:54;2.95;;;0.80;;
37241;SDS011;23135;51.078;12.108;2024-01-15T09:53:22;5.38;;;1.98;;
37241;SDS011;23135;51.078;12.108;2024-01-15T09:55:50;7.18;;;2.50;;
37241;SDS011;23135;51.078;12.108;2024-01-15T09:58:15;5.38;;;0.90;;
37241;SDS011;23135;51.078;12.108;2024-01-15T10:00:41;4.68;;;0.50;;
37241;SDS011;23135;51.078;12.108;2024-01-15T10:03:09;4.45;;;1.30;;
37241;SDS011;23135;51.078;12.108;2024-01-15T10:05:36;5.53;;;1.38;;
37241;SDS011;23135;51.078;12.108;2024-01-15T10:08:02;3.42;;;1.38;;
37241;SDS011;23135;51.078;12.108;2024-01-15T10:10:30;6.95;;;1.48;;
37241;SDS011;23135;51.078;12.108;2024-01-15T10:12:56;2.65;;;0.63;;
37241;SDS011;23135;51.078;12.108;2024-01-15T10:15:23;6.25;;;0.90;;
37241;SDS011;23135;51.078;12.108;2024-01-15T10:17:51;3.88;;;0.77;;
37241;SDS011;23135;51.078;12.108;2024-01-15T10:20:17;2.67;;;0.55;;
37241;SDS011;23135;51.078;12.108;2024-01-15T10:22:42;2.47;;;0.60;;
37241;SDS011;23135;51.078;12.108;2024-01-15T10:25:11;4.55;;;0.30;;
37241;SDS011;23135;51.078;12.108;2024-01-15T10:27:37;2.53;;;1.02;;
37241;SDS011;23135;51.078;12.108;2024-01-15T10:30:03;3.20;;;1.05;;
37241;SDS011;23135;51.078;12.108;2024-01-15T10:32:31;3.47;;;1.00;;
37241;SDS011;23135;51.078;12.108;2024-01-15T10:34:56;2.45;;;1.15;;
37241;SDS011;23135;51.078;12.108;2024-01-15T10:37:23;4.53;;;1.65;;
37241;SDS011;23135;51.078;12.108;2024-01-15T10:39:49;3.75;;;0.63;;
37241;SDS011;23135;51.078;12.108;2024-01-15T10:42:15;4.82;;;1.02;;
37241;SDS011;23135;51.078;12.108;2024-01-15T10:44:43;4.97;;;0.82;;
37241;SDS011;23135;51.078;12.108;2024-01-15T10:47:09;6.30;;;1.35;;
37241;SDS011;23135;51.078;12.108;2024-01-15T10:49:36;1.95;;;0.70;;
37241;SDS011;23135;51.078;12.108;2024-01-15T10:52:02;8.32;;;1.20;;
37241;SDS011;23135;51.078;12.108;2024-01-15T10:54:28;3.80;;;1.20;;
37241;SDS011;23135;51.078;12.108;2024-01-15T10:56:55;6.78;;;1.83;;
37241;SDS011;23135;51.078;12.108;2024-01-15T10:59:21;7.38;;;1.98;;
37241;SDS011;23135;51.078;12.108;2024-01-15T11:01:48;5.85;;;1.67;;
37241;SDS011;23135;51.078;12.108;2024-01-15T11:04:14;4.70;;;1.63;;
37241;SDS011;23135;51.078;12.108;2024-01-15T11:06:45;3.53;;;1.10;;
37241;SDS011;23135;51.078;12.108;2024-01-15T11:09:14;5.88;;;1.75;;
37241;SDS011;23135;51.078;12.108;2024-01-15T11:11:46;4.60;;;1.33;;
37241;SDS011;23135;51.078;12.108;2024-01-15T11:17:00;3.53;;;1.20;;
37241;SDS011;23135;51.078;12.108;2024-01-15T11:19:25;5.13;;;1.58;;
37241;SDS011;23135;51.078;12.108;2024-01-15T11:22:00;9.15;;;1.00;;
37241;SDS011;23135;51.078;12.108;2024-01-15T11:24:35;5.25;;;1.10;;
37241;SDS011;23135;51.078;12.108;2024-01-15T11:27:02;4.65;;;1.10;;
37241;SDS011;23135;51.078;12.108;2024-01-15T11:34:20;3.72;;;1.40;;
37241;SDS011;23135;51.078;12.108;2024-01-15T11:37:06;6.10;;;2.08;;
37241;SDS011;23135;51.078;12.108;2024-01-15T11:44:23;3.72;;;1.45;;
37241;SDS011;23135;51.078;12.108;2024-01-15T11:46:54;4.85;;;1.60;;
37241;SDS011;23135;51.078;12.108;2024-01-15T11:49:26;5.95;;;1.52;;
37241;SDS011;23135;51.078;12.108;2024-01-15T11:52:06;2.60;;;0.95;;
37241;SDS011;23135;51.078;12.108;2024-01-15T11:54:33;3.25;;;1.02;;
37241;SDS011;23135;51.078;12.108;2024-01-15T11:57:03;5.07;;;1.95;;
37241;SDS011;23135;51.078;12.108;2024-01-15T11:59:34;5.60;;;1.40;;
37241;SDS011;23135;51.078;12.108;2024-01-15T12:02:01;5.38;;;1.20;;
37241;SDS011;23135;51.078;12.108;2024-01-15T12:04:27;3.25;;;1.25;;
37241;SDS011;23135;51.078;12.108;2024-01-15T12:06:53;3.70;;;0.88;;
37241;SDS011;23135;51.078;12.108;2024-01-15T12:09:19;3.08;;;0.73;;
37241;SDS011;23135;51.078;12.108;2024-01-15T12:11:46;7.07;;;2.17;;
37241;SDS011;23135;51.078;12.108;2024-01-15T12:14:24;3.97;;;2.15;;
37241;SDS011;23135;51.078;12.108;2024-01-15T12:16:49;4.80;;;1.02;;
37241;SDS011;23135;51.078;12.108;2024-01-15T12:19:15;4.45;;;1.52;;
37241;SDS011;23135;51.078;12.108;2024-01-15T12:21:41;2.28;;;0.52;;
37241;SDS011;23135;51.078;12.108;2024-01-15T12:24:07;7.20;;;1.30;;
37241;SDS011;23135;51.078;12.108;2024-01-15T12:26:33;3.95;;;1.15;;
37241;SDS011;23135;51.078;12.108;2024-01-15T12:29:02;3.72;;;1.15;;
37241;SDS011;23135;51.078;12.108;2024-01-15T12:31:29;3.08;;;0.47;;
37241;SDS011;23135;51.078;12.108;2024-01-15T12:33:55;8.50;;;2.08;;
37241;SDS011;23135;51.078;12.108;2024-01-15T12:36:21;6.72;;;1.98;;
37241;SDS011;23135;51.078;12.108;2024-01-15T12:38:47;6.70;;;1.27;;
37241;SDS011;23135;51.078;12.108;2024-01-15T12:41:12;1.63;;;0.85;;
37241;SDS011;23135;51.078;12.108;2024-01-15T12:43:38;4.40;;;1.25;;
37241;SDS011;23135;51.078;12.108;2024-01-15T12:46:05;6.63;;;1.55;;
37241;SDS011;23135;51.078;12.108;2024-01-15T12:48:31;2.80;;;1.00;;
37241;SDS011;23135;51.078;12.108;2024-01-15T12:50:56;7.03;;;2.08;;
37241;SDS011;23135;51.078;12.108;2024-01-15T12:53:22;6.40;;;1.42;;
37241;SDS011;23135;51.078;12.108;2024-01-15T12:55:48;3.33;;;1.38;;
37241;SDS011;23135;51.078;12.108;2024-01-15T12:58:13;4.53;;;1.38;;
37241;SDS011;23135;51.078;12.108;2024-01-15T13:00:39;5.30;;;1.30;;
37241;SDS011;23135;51.078;12.108;2024-01-15T13:03:04;3.38;;;0.85;;
37241;SDS011;23135;51.078;12.108;2024-01-15T13:05:31;1.65;;;0.60;;
37241;SDS011;23135;51.078;12.108;2024-01-15T13:07:58;4.47;;;1.65;;
37241;SDS011;23135;51.078;12.108;2024-01-15T13:10:24;5.25;;;1.10;;
37241;SDS011;23135;51.078;12.108;2024-01-15T13:12:50;9.43;;;1.48;;
37241;SDS011;23135;51.078;12.108;2024-01-15T13:15:16;3.00;;;0.68;;
37241;SDS011;23135;51.078;12.108;2024-01-15T13:17:41;3.35;;;0.80;;
37241;SDS011;23135;51.078;12.108;2024-01-15T13:20:07;3.05;;;0.93;;
37241;SDS011;23135;51.078;12.108;2024-01-15T13:22:33;1.80;;;0.63;;
37241;SDS011;23135;51.078;12.108;2024-01-15T13:24:59;3.63;;;1.20;;
37241;SDS011;23135;51.078;12.108;2024-01-15T13:27:25;2.67;;;1.23;;
37241;SDS011;23135;51.078;12.108;2024-01-15T13:29:50;2.38;;;0.57;;
37241;SDS011;23135;51.078;12.108;2024-01-15T13:32:24;2.30;;;0.68;;
37241;SDS011;23135;51.078;12.108;2024-01-15T13:34:54;2.75;;;0.47;;
37241;SDS011;23135;51.078;12.108;2024-01-15T13:37:20;2.15;;;1.08;;
37241;SDS011;23135;51.078;12.108;2024-01-15T13:39:46;1.73;;;0.50;;
37241;SDS011;23135;51.078;12.108;2024-01-15T13:42:12;1.17;;;0.90;;
37241;SDS011;23135;51.078;12.108;2024-01-15T13:44:37;4.68;;;0.98;;
37241;SDS011;23135;51.078;12.108;2024-01-15T13:47:03;3.03;;;1.10;;
37241;SDS011;23135;51.078;12.108;2024-01-15T13:49:30;3.33;;;1.08;;
37241;SDS011;23135;51.078;12.108;2024-01-15T13:51:56;3.13;;;0.82;;
37241;SDS011;23135;51.078;12.108;2024-01-15T13:54:22;1.70;;;0.80;;
37241;SDS011;23135;51.078;12.108;2024-01-15T13:56:47;4.05;;;1.33;;
37241;SDS011;23135;51.078;12.108;2024-01-15T13:59:13;5.60;;;0.80;;
37241;SDS011;23135;51.078;12.108;2024-01-15T14:01:39;1.85;;;0.68;;
37241;SDS011;23135;51.078;12.108;2024-01-15T14:04:04;2.08;;;0.88;;
37241;SDS011;23135;51.078;12.108;2024-01-15T14:06:30;3.00;;;0.93;;
37241;SDS011;23135;51.078;12.108;2024-01-15T14:08:55;3.42;;;0.98;;
37241;SDS011;23135;51.078;12.108;2024-01-15T14:11:21;5.93;;;1.83;;
37241;SDS011;23135;51.078;12.108;2024-01-15T14:13:48;4.72;;;1.20;;
37241;SDS011;23135;51.078;12.108;2024-01-15T14:16:13;1.50;;;0.35;;
37241;SDS011;23135;51.078;12.108;2024-01-15T14:18:39;5.28;;;1.25;;
37241;SDS011;23135;51.078;12.108;2024-01-15T14:21:04;4.30;;;1.77;;
37241;SDS011;23135;51.078;12.108;2024-01-15T14:23:30;3.90;;;1.80;;
37241;SDS011;23135;51.078;12.108;2024-01-15T14:25:56;3.50;;;1.98;;
37241;SDS011;23135;51.078;12.108;2024-01-15T14:28:22;5.38;;;1.02;;
37241;SDS011;23135;51.078;12.108;2024-01-15T14:30:48;2.65;;;1.10;;
37241;SDS011;23135;51.078;12.108;2024-01-15T14:33:14;3.60;;;1.20;;
37241;SDS011;23135;51.078;12.108;2024-01-15T14:35:39;5.32;;;2.22;;
37241;SDS011;23135;51.078;12.108;2024-01-15T14:38:05;7.43;;;2.22;;
37241;SDS011;23135;51.078;12.108;2024-01-15T14:40:32;7.18;;;1.58;;